KLM777 TNCM-GOBD
Flight info
| Callsign | KLM777 |
|---|---|
| Flight time | 5h 23m |
| Altitude | 39000 |
| Route | ELOPO DCT OTUSU DCT ELJEZ/M083F390 DCT 2150N DCT 2340N DCT 22N036W DCT ERNEK/N0479F390 DCT EVKAS DCT BVT DCT MOGSA DCT PIVSA |
| Aircraft | B772/H-SDE2E3FGHIJ5LORVWXY/LB1D1 |
Departure
| Time | 2026-04-25 14:19 |
|---|---|
| Airport | Princess Juliana International Airport (TNCM) |
Arrival
| Time | 2026-04-25 19:42 |
|---|---|
| Airport | Blaise Diagne International Airport (GOBD) |
| Time | Latitude | Longitude | Altitude | Speed | Heading |
|---|---|---|---|---|---|
| 2026-04-25 13:54 | 18.04227 | -63.11580 | 25 ft | 0 kts | 320° |
| 2026-04-25 14:07 | 18.04219 | -63.11574 | 25 ft | 4 kts | 320° |
| 2026-04-25 14:08 | 18.04202 | -63.11559 | 31 ft | 4 kts | 322° |
| 2026-04-25 14:08 | 18.04180 | -63.11548 | 31 ft | 4 kts | 8° |
| 2026-04-25 14:08 | 18.04158 | -63.11559 | 25 ft | 4 kts | 47° |
| 2026-04-25 14:08 | 18.04157 | -63.11559 | 25 ft | 4 kts | 51° |
| 2026-04-25 14:09 | 18.04167 | -63.11546 | 29 ft | 0 kts | 51° |
| 2026-04-25 14:12 | 18.04193 | -63.11512 | 31 ft | 10 kts | 51° |
| 2026-04-25 14:12 | 18.04223 | -63.11450 | 28 ft | 10 kts | 73° |
| 2026-04-25 14:13 | 18.04238 | -63.11381 | 29 ft | 10 kts | 82° |
| 2026-04-25 14:13 | 18.04229 | -63.11320 | 28 ft | 3 kts | 131° |
| 2026-04-25 14:13 | 18.04212 | -63.11312 | 28 ft | 3 kts | 161° |
| 2026-04-25 14:13 | 18.04194 | -63.11307 | 28 ft | 3 kts | 166° |
| 2026-04-25 14:14 | 18.04175 | -63.11302 | 27 ft | 3 kts | 168° |
| 2026-04-25 14:14 | 18.04155 | -63.11298 | 30 ft | 3 kts | 169° |
| 2026-04-25 14:14 | 18.04136 | -63.11295 | 30 ft | 3 kts | 172° |
| 2026-04-25 14:14 | 18.04128 | -63.11294 | 29 ft | 0 kts | 172° |
| 2026-04-25 14:16 | 18.04115 | -63.11292 | 28 ft | 9 kts | 172° |
| 2026-04-25 14:16 | 18.04048 | -63.11308 | 27 ft | 10 kts | 222° |
| 2026-04-25 14:16 | 18.04022 | -63.11396 | 26 ft | 20 kts | 259° |
| 2026-04-25 14:16 | 18.03998 | -63.11565 | 26 ft | 24 kts | 261° |
| 2026-04-25 14:17 | 18.03972 | -63.11739 | 27 ft | 24 kts | 261° |
| 2026-04-25 14:17 | 18.03975 | -63.11874 | 29 ft | 17 kts | 284° |
| 2026-04-25 14:17 | 18.03985 | -63.11947 | 26 ft | 3 kts | 237° |
| 2026-04-25 14:17 | 18.03965 | -63.11957 | 26 ft | 3 kts | 192° |
| 2026-04-25 14:18 | 18.03947 | -63.11939 | 26 ft | 4 kts | 109° |
| 2026-04-25 14:18 | 18.03947 | -63.11917 | 26 ft | 0 kts | 84° |
| 2026-04-25 14:18 | 18.03960 | -63.11814 | 25 ft | 45 kts | 82° |
| 2026-04-25 14:19 | 18.04048 | -63.11202 | 27 ft | 122 kts | 81° |
| 2026-04-25 14:19 | 18.04209 | -63.10102 | 162 ft | 169 kts | 82° |
| 2026-04-25 14:19 | 18.04482 | -63.08929 | 1034 ft | 163 kts | 78° |
| 2026-04-25 14:19 | 18.04556 | -63.07743 | 1710 ft | 167 kts | 109° |
| 2026-04-25 14:20 | 18.03856 | -63.06711 | 2005 ft | 192 kts | 146° |
| 2026-04-25 14:20 | 18.03452 | -63.06478 | 2110 ft | 200 kts | 158° |
| 2026-04-25 14:20 | 18.00973 | -63.05748 | 2474 ft | 245 kts | 165° |
| 2026-04-25 14:20 | 17.99314 | -63.05278 | 3050 ft | 253 kts | 165° |
| 2026-04-25 14:21 | 17.97632 | -63.04719 | 3716 ft | 255 kts | 154° |
| 2026-04-25 14:21 | 17.96356 | -63.03402 | 4231 ft | 267 kts | 118° |
| 2026-04-25 14:21 | 17.95789 | -63.01536 | 4790 ft | 272 kts | 107° |
| 2026-04-25 14:21 | 17.95212 | -62.99616 | 5375 ft | 277 kts | 113° |
| 2026-04-25 14:22 | 17.94465 | -62.97774 | 6078 ft | 277 kts | 118° |
| 2026-04-25 14:22 | 17.93570 | -62.95961 | 6733 ft | 280 kts | 122° |
| 2026-04-25 14:22 | 17.92571 | -62.94190 | 7334 ft | 282 kts | 124° |
| 2026-04-25 14:22 | 17.91505 | -62.92459 | 7955 ft | 284 kts | 126° |
| 2026-04-25 14:23 | 17.90391 | -62.90752 | 8550 ft | 287 kts | 128° |
| 2026-04-25 14:23 | 17.89224 | -62.89028 | 9173 ft | 289 kts | 128° |
| 2026-04-25 14:23 | 17.88039 | -62.87323 | 9765 ft | 292 kts | 129° |
| 2026-04-25 14:23 | 17.86820 | -62.85595 | 10241 ft | 298 kts | 129° |
| 2026-04-25 14:24 | 17.85545 | -62.83810 | 10371 ft | 317 kts | 129° |
| 2026-04-25 14:24 | 17.84172 | -62.81900 | 10506 ft | 336 kts | 129° |
| 2026-04-25 14:24 | 17.82718 | -62.79884 | 10751 ft | 353 kts | 129° |
| 2026-04-25 14:24 | 17.81228 | -62.77819 | 11231 ft | 363 kts | 129° |
| 2026-04-25 14:25 | 17.79682 | -62.75677 | 11894 ft | 370 kts | 129° |
| 2026-04-25 14:25 | 17.78116 | -62.73509 | 12713 ft | 373 kts | 130° |
| 2026-04-25 14:25 | 17.76535 | -62.71322 | 13528 ft | 377 kts | 130° |
| 2026-04-25 14:25 | 17.76015 | -62.70603 | 13767 ft | 379 kts | 130° |
| 2026-04-25 14:26 | 17.73330 | -62.66895 | 14828 ft | 387 kts | 130° |
| 2026-04-25 14:26 | 17.71696 | -62.64638 | 15004 ft | 391 kts | 130° |
| 2026-04-25 14:26 | 17.70042 | -62.62355 | 14994 ft | 392 kts | 130° |
| 2026-04-25 14:26 | 17.68411 | -62.60105 | 14997 ft | 391 kts | 130° |
| 2026-04-25 14:27 | 17.66782 | -62.57821 | 14992 ft | 388 kts | 126° |
| 2026-04-25 14:27 | 17.65555 | -62.55274 | 14989 ft | 395 kts | 111° |
| 2026-04-25 14:27 | 17.64973 | -62.52440 | 15008 ft | 399 kts | 97° |
| 2026-04-25 14:27 | 17.64950 | -62.49561 | 15151 ft | 404 kts | 90° |
| 2026-04-25 14:28 | 17.65011 | -62.46604 | 15841 ft | 406 kts | 90° |
| 2026-04-25 14:28 | 17.65068 | -62.43617 | 16576 ft | 408 kts | 91° |
| 2026-04-25 14:28 | 17.65120 | -62.40606 | 17225 ft | 413 kts | 91° |
| 2026-04-25 14:28 | 17.65165 | -62.37599 | 17819 ft | 418 kts | 91° |
| 2026-04-25 14:29 | 17.65206 | -62.34529 | 18400 ft | 423 kts | 91° |
| 2026-04-25 14:29 | 17.65242 | -62.31457 | 18918 ft | 426 kts | 91° |
| 2026-04-25 14:29 | 17.65275 | -62.28329 | 19440 ft | 430 kts | 91° |
| 2026-04-25 14:29 | 17.65307 | -62.25172 | 19951 ft | 434 kts | 91° |
| 2026-04-25 14:30 | 17.65337 | -62.22014 | 20438 ft | 438 kts | 91° |
| 2026-04-25 14:30 | 17.65395 | -62.15573 | 21381 ft | 446 kts | 91° |
| 2026-04-25 14:30 | 17.65424 | -62.12288 | 21879 ft | 450 kts | 91° |
| 2026-04-25 14:31 | 17.65452 | -62.09028 | 22323 ft | 454 kts | 91° |
| 2026-04-25 14:31 | 17.65481 | -62.05695 | 22776 ft | 458 kts | 92° |
| 2026-04-25 14:31 | 17.65509 | -62.02331 | 23231 ft | 461 kts | 92° |
| 2026-04-25 14:31 | 17.65537 | -61.98947 | 23656 ft | 465 kts | 92° |
| 2026-04-25 14:32 | 17.65564 | -61.95564 | 23995 ft | 469 kts | 92° |
| 2026-04-25 14:32 | 17.65591 | -61.92111 | 24359 ft | 472 kts | 92° |
| 2026-04-25 14:32 | 17.65618 | -61.88689 | 24730 ft | 475 kts | 92° |
| 2026-04-25 14:32 | 17.65644 | -61.85205 | 25115 ft | 478 kts | 92° |
| 2026-04-25 14:33 | 17.65670 | -61.81699 | 25490 ft | 481 kts | 92° |
| 2026-04-25 14:33 | 17.65695 | -61.78221 | 25854 ft | 484 kts | 92° |
| 2026-04-25 14:33 | 17.65720 | -61.74668 | 26219 ft | 488 kts | 92° |
| 2026-04-25 14:33 | 17.65745 | -61.71087 | 26577 ft | 491 kts | 92° |
| 2026-04-25 14:34 | 17.65769 | -61.67530 | 26942 ft | 494 kts | 92° |
| 2026-04-25 14:34 | 17.65793 | -61.63894 | 27298 ft | 497 kts | 92° |
| 2026-04-25 14:34 | 17.65816 | -61.60250 | 27653 ft | 500 kts | 92° |
| 2026-04-25 14:34 | 17.65838 | -61.56617 | 28001 ft | 503 kts | 92° |
| 2026-04-25 14:35 | 17.65860 | -61.52921 | 28355 ft | 506 kts | 92° |
| 2026-04-25 14:35 | 17.65881 | -61.49203 | 28692 ft | 509 kts | 92° |
| 2026-04-25 14:35 | 17.65902 | -61.45516 | 29028 ft | 513 kts | 92° |
| 2026-04-25 14:35 | 17.65922 | -61.41756 | 29368 ft | 516 kts | 92° |
| 2026-04-25 14:36 | 17.65935 | -61.39254 | 29585 ft | 518 kts | 92° |
| 2026-04-25 14:36 | 17.65960 | -61.34216 | 30027 ft | 522 kts | 92° |
| 2026-04-25 14:36 | 17.65973 | -61.31637 | 30211 ft | 523 kts | 92° |
| 2026-04-25 14:36 | 17.65990 | -61.27856 | 30554 ft | 524 kts | 92° |
| 2026-04-25 14:37 | 17.66008 | -61.24008 | 30852 ft | 526 kts | 92° |
| 2026-04-25 14:37 | 17.66025 | -61.20197 | 31086 ft | 529 kts | 92° |
| 2026-04-25 14:37 | 17.66040 | -61.16316 | 31309 ft | 532 kts | 92° |
| 2026-04-25 14:37 | 17.66055 | -61.12458 | 31530 ft | 534 kts | 92° |
| 2026-04-25 14:38 | 17.66069 | -61.08546 | 31766 ft | 536 kts | 92° |
| 2026-04-25 14:38 | 17.66083 | -61.04612 | 31995 ft | 538 kts | 92° |
| 2026-04-25 14:38 | 17.66096 | -61.00725 | 32236 ft | 539 kts | 92° |
| 2026-04-25 14:38 | 17.66109 | -60.96786 | 32522 ft | 539 kts | 92° |
| 2026-04-25 14:39 | 17.66121 | -60.92850 | 32841 ft | 539 kts | 92° |
| 2026-04-25 14:39 | 17.66132 | -60.88942 | 33147 ft | 539 kts | 92° |
| 2026-04-25 14:39 | 17.66142 | -60.84998 | 33442 ft | 539 kts | 92° |
| 2026-04-25 14:39 | 17.66151 | -60.81099 | 33736 ft | 539 kts | 92° |
| 2026-04-25 14:40 | 17.66157 | -60.78477 | 33929 ft | 539 kts | 93° |
| 2026-04-25 14:40 | 17.66167 | -60.73205 | 34198 ft | 542 kts | 93° |
| 2026-04-25 14:40 | 17.66173 | -60.69221 | 34368 ft | 543 kts | 93° |
| 2026-04-25 14:40 | 17.66180 | -60.65323 | 34806 ft | 538 kts | 93° |
| 2026-04-25 14:41 | 17.66186 | -60.61385 | 35225 ft | 535 kts | 93° |
| 2026-04-25 14:41 | 17.66192 | -60.57514 | 35527 ft | 534 kts | 93° |
| 2026-04-25 14:41 | 17.66195 | -60.53597 | 35766 ft | 535 kts | 93° |
| 2026-04-25 14:41 | 17.66197 | -60.49693 | 36014 ft | 535 kts | 93° |
| 2026-04-25 14:42 | 17.66199 | -60.45834 | 36285 ft | 534 kts | 93° |
| 2026-04-25 14:42 | 17.66199 | -60.43247 | 36490 ft | 533 kts | 93° |
| 2026-04-25 14:42 | 17.66201 | -60.38027 | 36900 ft | 532 kts | 93° |
| 2026-04-25 14:42 | 17.66200 | -60.34190 | 37137 ft | 532 kts | 93° |
| 2026-04-25 14:43 | 17.66199 | -60.30291 | 37371 ft | 532 kts | 93° |
| 2026-04-25 14:43 | 17.66197 | -60.26410 | 37633 ft | 532 kts | 93° |
| 2026-04-25 14:43 | 17.66195 | -60.22558 | 37831 ft | 533 kts | 93° |
| 2026-04-25 14:43 | 17.66191 | -60.18661 | 38040 ft | 533 kts | 93° |
| 2026-04-25 14:44 | 17.66187 | -60.14759 | 38290 ft | 532 kts | 93° |
| 2026-04-25 14:44 | 17.66183 | -60.10930 | 38522 ft | 532 kts | 93° |
| 2026-04-25 14:44 | 17.66177 | -60.07036 | 38736 ft | 531 kts | 93° |
| 2026-04-25 14:44 | 17.66171 | -60.03145 | 38821 ft | 534 kts | 93° |
| 2026-04-25 14:45 | 17.66155 | -59.95363 | 38956 ft | 536 kts | 93° |
| 2026-04-25 14:45 | 17.66137 | -59.87539 | 38997 ft | 534 kts | 93° |
| 2026-04-25 14:46 | 17.66119 | -59.79821 | 39009 ft | 529 kts | 93° |
| 2026-04-25 14:46 | 17.66095 | -59.72102 | 39009 ft | 526 kts | 93° |
| 2026-04-25 14:47 | 17.66073 | -59.65734 | 39019 ft | 524 kts | 93° |
| 2026-04-25 14:47 | 17.66038 | -59.56847 | 39025 ft | 524 kts | 94° |
| 2026-04-25 14:48 | 17.66005 | -59.49202 | 39017 ft | 525 kts | 94° |
| 2026-04-25 14:48 | 17.65969 | -59.41512 | 39021 ft | 526 kts | 94° |
| 2026-04-25 14:49 | 17.65930 | -59.33876 | 39021 ft | 527 kts | 94° |
| 2026-04-25 14:49 | 17.65889 | -59.26173 | 39024 ft | 527 kts | 94° |
| 2026-04-25 14:50 | 17.65845 | -59.18506 | 39019 ft | 527 kts | 94° |
| 2026-04-25 14:50 | 17.65797 | -59.10790 | 39018 ft | 527 kts | 94° |
| 2026-04-25 14:51 | 17.65747 | -59.03130 | 39019 ft | 526 kts | 94° |
| 2026-04-25 14:51 | 17.65694 | -58.95481 | 39030 ft | 525 kts | 94° |
| 2026-04-25 14:52 | 17.65638 | -58.87823 | 39022 ft | 523 kts | 94° |
| 2026-04-25 14:52 | 17.65590 | -58.81510 | 39015 ft | 522 kts | 94° |
| 2026-04-25 14:53 | 17.65518 | -58.72650 | 39016 ft | 520 kts | 94° |
| 2026-04-25 14:53 | 17.65453 | -58.65044 | 39024 ft | 519 kts | 94° |
| 2026-04-25 14:54 | 17.65386 | -58.57510 | 39016 ft | 519 kts | 94° |
| 2026-04-25 14:54 | 17.65316 | -58.49924 | 39026 ft | 519 kts | 94° |
| 2026-04-25 14:55 | 17.65243 | -58.42382 | 39027 ft | 520 kts | 94° |
| 2026-04-25 14:55 | 17.65167 | -58.34804 | 39030 ft | 521 kts | 94° |
| 2026-04-25 14:56 | 17.65087 | -58.27168 | 39025 ft | 522 kts | 94° |
| 2026-04-25 14:56 | 17.65005 | -58.19579 | 39023 ft | 523 kts | 94° |
| 2026-04-25 14:57 | 17.64921 | -58.11944 | 39034 ft | 523 kts | 94° |
| 2026-04-25 14:57 | 17.64833 | -58.04331 | 39024 ft | 522 kts | 94° |
| 2026-04-25 14:58 | 17.64742 | -57.96733 | 39025 ft | 522 kts | 94° |
| 2026-04-25 14:58 | 17.64649 | -57.89130 | 39016 ft | 521 kts | 94° |
| 2026-04-25 14:59 | 17.64552 | -57.81549 | 39030 ft | 521 kts | 94° |
| 2026-04-25 14:59 | 17.64453 | -57.73974 | 39033 ft | 520 kts | 94° |
| 2026-04-25 15:00 | 17.64351 | -57.66367 | 39028 ft | 520 kts | 94° |
| 2026-04-25 15:00 | 17.64246 | -57.58822 | 39028 ft | 520 kts | 94° |
| 2026-04-25 15:01 | 17.64509 | -57.51270 | 39015 ft | 523 kts | 80° |
| 2026-04-25 15:01 | 17.65560 | -57.47591 | 39041 ft | 525 kts | 68° |
| 2026-04-25 15:01 | 17.67184 | -57.44202 | 39022 ft | 526 kts | 57° |
| 2026-04-25 15:02 | 17.71680 | -57.38122 | 39027 ft | 525 kts | 50° |
| 2026-04-25 15:02 | 17.76254 | -57.32157 | 39029 ft | 528 kts | 51° |
| 2026-04-25 15:03 | 17.80797 | -57.26069 | 39034 ft | 530 kts | 51° |
| 2026-04-25 15:03 | 17.85321 | -57.19929 | 39030 ft | 531 kts | 52° |
| 2026-04-25 15:04 | 17.89836 | -57.13798 | 39034 ft | 532 kts | 51° |
| 2026-04-25 15:04 | 17.94354 | -57.07669 | 39045 ft | 532 kts | 51° |
| 2026-04-25 15:05 | 17.98856 | -57.01474 | 39036 ft | 532 kts | 54° |
| 2026-04-25 15:06 | 18.04102 | -56.91255 | 39041 ft | 531 kts | 65° |
| 2026-04-25 15:06 | 18.07209 | -56.84244 | 39032 ft | 531 kts | 65° |
| 2026-04-25 15:07 | 18.10349 | -56.77237 | 39036 ft | 530 kts | 65° |
| 2026-04-25 15:07 | 18.13512 | -56.70249 | 39041 ft | 530 kts | 65° |
| 2026-04-25 15:08 | 18.16695 | -56.63231 | 39035 ft | 530 kts | 65° |
| 2026-04-25 15:08 | 18.19853 | -56.56260 | 39035 ft | 530 kts | 65° |
| 2026-04-25 15:09 | 18.23027 | -56.49239 | 39035 ft | 529 kts | 65° |
| 2026-04-25 15:09 | 18.27762 | -56.38745 | 39034 ft | 529 kts | 65° |
| 2026-04-25 15:10 | 18.30908 | -56.31762 | 39036 ft | 529 kts | 65° |
| 2026-04-25 15:11 | 18.35631 | -56.21266 | 39034 ft | 529 kts | 65° |
| 2026-04-25 15:11 | 18.38767 | -56.14286 | 39047 ft | 529 kts | 65° |
| 2026-04-25 15:12 | 18.43477 | -56.03786 | 39041 ft | 530 kts | 65° |
| 2026-04-25 15:12 | 18.45588 | -55.99075 | 39041 ft | 530 kts | 65° |
| 2026-04-25 15:13 | 18.51336 | -55.86226 | 39040 ft | 531 kts | 65° |
| 2026-04-25 15:14 | 18.54497 | -55.79149 | 39038 ft | 531 kts | 65° |
| 2026-04-25 15:14 | 18.57625 | -55.72136 | 39048 ft | 531 kts | 65° |
| 2026-04-25 15:15 | 18.60766 | -55.65086 | 39043 ft | 532 kts | 65° |
| 2026-04-25 15:15 | 18.63910 | -55.58022 | 39043 ft | 532 kts | 65° |
| 2026-04-25 15:16 | 18.67064 | -55.50926 | 39045 ft | 532 kts | 65° |
| 2026-04-25 15:16 | 18.71771 | -55.40320 | 39042 ft | 532 kts | 65° |
| 2026-04-25 15:17 | 18.76463 | -55.29727 | 39049 ft | 532 kts | 65° |
| 2026-04-25 15:18 | 18.79580 | -55.22680 | 39045 ft | 532 kts | 65° |
| 2026-04-25 15:18 | 18.84285 | -55.12026 | 39049 ft | 532 kts | 65° |
| 2026-04-25 15:19 | 18.86362 | -55.07318 | 39048 ft | 532 kts | 65° |
| 2026-04-25 15:19 | 18.90521 | -54.97877 | 39041 ft | 532 kts | 65° |
| 2026-04-25 15:20 | 18.93635 | -54.90797 | 39054 ft | 531 kts | 65° |
| 2026-04-25 15:20 | 18.96736 | -54.83738 | 39060 ft | 531 kts | 65° |
| 2026-04-25 15:21 | 18.99857 | -54.76626 | 39053 ft | 532 kts | 65° |
| 2026-04-25 15:21 | 19.02963 | -54.69538 | 39048 ft | 532 kts | 65° |
| 2026-04-25 15:22 | 19.06066 | -54.62450 | 39047 ft | 532 kts | 65° |
| 2026-04-25 15:22 | 19.09166 | -54.55357 | 39049 ft | 532 kts | 65° |
| 2026-04-25 15:23 | 19.11759 | -54.49418 | 39046 ft | 532 kts | 65° |
| 2026-04-25 15:23 | 19.14858 | -54.42313 | 39068 ft | 532 kts | 65° |
| 2026-04-25 15:24 | 19.17946 | -54.35225 | 39053 ft | 533 kts | 65° |
| 2026-04-25 15:24 | 19.20533 | -54.29280 | 39050 ft | 533 kts | 65° |
| 2026-04-25 15:25 | 19.24142 | -54.20973 | 39055 ft | 533 kts | 65° |
| 2026-04-25 15:25 | 19.27246 | -54.13820 | 39054 ft | 533 kts | 65° |
| 2026-04-25 15:26 | 19.30345 | -54.06671 | 39065 ft | 539 kts | 65° |
| 2026-04-25 15:26 | 19.33471 | -53.99448 | 39063 ft | 544 kts | 65° |
| 2026-04-25 15:27 | 19.36633 | -53.92133 | 39066 ft | 549 kts | 65° |
| 2026-04-25 15:28 | 19.41420 | -53.81042 | 39057 ft | 552 kts | 65° |
| 2026-04-25 15:28 | 19.44581 | -53.73704 | 39041 ft | 543 kts | 65° |
| 2026-04-25 15:29 | 19.47707 | -53.66439 | 39047 ft | 539 kts | 65° |
| 2026-04-25 15:29 | 19.50801 | -53.59239 | 39067 ft | 537 kts | 65° |
| 2026-04-25 15:30 | 19.53918 | -53.51976 | 39068 ft | 543 kts | 65° |
| 2026-04-25 15:30 | 19.57055 | -53.44659 | 39068 ft | 548 kts | 65° |
| 2026-04-25 15:31 | 19.60204 | -53.37302 | 39068 ft | 551 kts | 65° |
| 2026-04-25 15:31 | 19.63370 | -53.29894 | 39061 ft | 554 kts | 65° |
| 2026-04-25 15:32 | 19.66551 | -53.22441 | 39040 ft | 548 kts | 65° |
| 2026-04-25 15:32 | 19.69660 | -53.15146 | 39055 ft | 543 kts | 65° |
| 2026-04-25 15:33 | 19.74326 | -53.04184 | 39064 ft | 545 kts | 65° |
| 2026-04-25 15:33 | 19.77456 | -52.96817 | 39062 ft | 546 kts | 65° |
| 2026-04-25 15:34 | 19.80566 | -52.89488 | 39062 ft | 547 kts | 65° |
| 2026-04-25 15:34 | 19.83175 | -52.83331 | 39060 ft | 547 kts | 65° |
| 2026-04-25 15:35 | 19.88372 | -52.71044 | 39061 ft | 548 kts | 65° |
| 2026-04-25 15:36 | 19.93064 | -52.59930 | 39064 ft | 549 kts | 65° |
| 2026-04-25 15:36 | 19.96177 | -52.52543 | 39064 ft | 549 kts | 65° |
| 2026-04-25 15:37 | 19.99292 | -52.45141 | 39063 ft | 548 kts | 65° |
| 2026-04-25 15:37 | 20.02414 | -52.37710 | 39061 ft | 548 kts | 65° |
| 2026-04-25 15:38 | 20.05512 | -52.30328 | 39060 ft | 547 kts | 65° |
| 2026-04-25 15:38 | 20.08594 | -52.22973 | 39063 ft | 546 kts | 65° |
| 2026-04-25 15:39 | 20.11689 | -52.15578 | 39057 ft | 545 kts | 65° |
| 2026-04-25 15:39 | 20.14763 | -52.08222 | 39064 ft | 544 kts | 65° |
| 2026-04-25 15:40 | 20.17308 | -52.02124 | 39059 ft | 544 kts | 65° |
| 2026-04-25 15:40 | 20.20899 | -51.93510 | 39064 ft | 544 kts | 65° |
| 2026-04-25 15:41 | 20.23965 | -51.86142 | 39064 ft | 545 kts | 65° |
| 2026-04-25 15:41 | 20.27027 | -51.78775 | 39062 ft | 546 kts | 65° |
| 2026-04-25 15:42 | 20.30089 | -51.71396 | 39065 ft | 546 kts | 65° |
| 2026-04-25 15:42 | 20.33166 | -51.63970 | 39064 ft | 547 kts | 65° |
| 2026-04-25 15:43 | 20.36239 | -51.56544 | 39063 ft | 547 kts | 65° |
| 2026-04-25 15:43 | 20.39298 | -51.49144 | 39063 ft | 548 kts | 65° |
| 2026-04-25 15:44 | 20.42372 | -51.41694 | 39064 ft | 548 kts | 65° |
| 2026-04-25 15:44 | 20.45429 | -51.34276 | 39066 ft | 548 kts | 65° |
| 2026-04-25 15:45 | 20.48500 | -51.26813 | 39066 ft | 548 kts | 65° |
| 2026-04-25 15:45 | 20.50536 | -51.21858 | 39064 ft | 548 kts | 65° |
| 2026-04-25 15:46 | 20.54614 | -51.11920 | 39066 ft | 548 kts | 65° |
| 2026-04-25 15:46 | 20.57670 | -51.04463 | 39067 ft | 549 kts | 65° |
| 2026-04-25 15:47 | 20.60714 | -50.97021 | 39062 ft | 549 kts | 65° |
| 2026-04-25 15:47 | 20.63779 | -50.89519 | 39063 ft | 549 kts | 65° |
| 2026-04-25 15:48 | 20.66825 | -50.82052 | 39069 ft | 549 kts | 65° |
| 2026-04-25 15:48 | 20.69862 | -50.74594 | 39071 ft | 550 kts | 65° |
| 2026-04-25 15:49 | 20.72904 | -50.67117 | 39069 ft | 550 kts | 65° |
| 2026-04-25 15:49 | 20.75963 | -50.59586 | 39071 ft | 550 kts | 65° |
| 2026-04-25 15:50 | 20.78998 | -50.52102 | 39069 ft | 550 kts | 65° |
| 2026-04-25 15:50 | 20.82029 | -50.44615 | 39074 ft | 550 kts | 65° |
| 2026-04-25 15:51 | 20.84062 | -50.39589 | 39074 ft | 551 kts | 65° |
| 2026-04-25 15:51 | 20.88115 | -50.29551 | 39069 ft | 551 kts | 65° |
| 2026-04-25 15:52 | 20.91138 | -50.22053 | 39066 ft | 551 kts | 65° |
| 2026-04-25 15:52 | 20.94173 | -50.14513 | 39069 ft | 551 kts | 65° |
| 2026-04-25 15:53 | 20.97190 | -50.07006 | 39067 ft | 551 kts | 65° |
| 2026-04-25 15:53 | 21.00112 | -49.99407 | 39056 ft | 552 kts | 70° |
| 2026-04-25 15:54 | 21.02112 | -49.91494 | 39078 ft | 553 kts | 76° |
| 2026-04-25 15:54 | 21.03888 | -49.83502 | 39069 ft | 553 kts | 76° |
| 2026-04-25 15:55 | 21.05702 | -49.75450 | 39064 ft | 554 kts | 76° |
| 2026-04-25 15:55 | 21.07537 | -49.67474 | 39069 ft | 554 kts | 76° |
| 2026-04-25 15:56 | 21.09395 | -49.59447 | 39070 ft | 554 kts | 76° |
| 2026-04-25 15:56 | 21.11230 | -49.51493 | 39060 ft | 554 kts | 75° |
| 2026-04-25 15:57 | 21.13080 | -49.43444 | 39074 ft | 554 kts | 75° |
| 2026-04-25 15:57 | 21.14912 | -49.35448 | 39066 ft | 554 kts | 75° |
| 2026-04-25 15:58 | 21.16744 | -49.27433 | 39071 ft | 555 kts | 76° |
| 2026-04-25 15:58 | 21.18573 | -49.19414 | 39074 ft | 554 kts | 76° |
| 2026-04-25 15:59 | 21.20407 | -49.11353 | 39075 ft | 554 kts | 76° |
| 2026-04-25 15:59 | 21.22225 | -49.03340 | 39065 ft | 554 kts | 75° |
| 2026-04-25 16:00 | 21.23436 | -48.97998 | 39067 ft | 554 kts | 75° |
| 2026-04-25 16:00 | 21.25853 | -48.87306 | 39068 ft | 554 kts | 75° |
| 2026-04-25 16:01 | 21.27660 | -48.79290 | 39071 ft | 554 kts | 75° |
| 2026-04-25 16:01 | 21.29472 | -48.71234 | 39080 ft | 554 kts | 75° |
| 2026-04-25 16:02 | 21.31270 | -48.63221 | 39065 ft | 554 kts | 76° |
| 2026-04-25 16:02 | 21.33064 | -48.55201 | 39075 ft | 553 kts | 75° |
| 2026-04-25 16:03 | 21.34862 | -48.47149 | 39071 ft | 552 kts | 75° |
| 2026-04-25 16:03 | 21.36642 | -48.39160 | 39067 ft | 552 kts | 75° |
| 2026-04-25 16:04 | 21.38415 | -48.31184 | 39075 ft | 551 kts | 75° |
| 2026-04-25 16:04 | 21.40198 | -48.23142 | 39077 ft | 551 kts | 75° |
| 2026-04-25 16:05 | 21.41962 | -48.15166 | 39086 ft | 551 kts | 75° |
| 2026-04-25 16:06 | 21.44600 | -48.03208 | 39070 ft | 551 kts | 75° |
| 2026-04-25 16:06 | 21.46365 | -47.95179 | 39076 ft | 551 kts | 76° |
| 2026-04-25 16:07 | 21.48131 | -47.87129 | 39080 ft | 552 kts | 76° |
| 2026-04-25 16:07 | 21.49886 | -47.79109 | 39075 ft | 553 kts | 76° |
| 2026-04-25 16:08 | 21.51636 | -47.71094 | 39079 ft | 554 kts | 76° |
| 2026-04-25 16:08 | 21.53096 | -47.64386 | 39090 ft | 554 kts | 75° |
| 2026-04-25 16:09 | 21.54852 | -47.56304 | 39065 ft | 553 kts | 75° |
| 2026-04-25 16:09 | 21.56583 | -47.48319 | 39084 ft | 551 kts | 75° |
| 2026-04-25 16:10 | 21.58324 | -47.40272 | 39072 ft | 551 kts | 75° |
| 2026-04-25 16:10 | 21.60051 | -47.32263 | 39071 ft | 550 kts | 75° |
| 2026-04-25 16:11 | 21.61770 | -47.24278 | 39074 ft | 550 kts | 75° |
| 2026-04-25 16:11 | 21.63493 | -47.16246 | 39079 ft | 550 kts | 75° |
| 2026-04-25 16:12 | 21.65201 | -47.08269 | 39080 ft | 550 kts | 75° |
| 2026-04-25 16:12 | 21.66908 | -47.00280 | 39081 ft | 549 kts | 75° |
| 2026-04-25 16:13 | 21.68611 | -46.92288 | 39075 ft | 549 kts | 75° |
| 2026-04-25 16:13 | 21.70319 | -46.84253 | 39084 ft | 550 kts | 75° |
| 2026-04-25 16:14 | 21.72016 | -46.76250 | 39099 ft | 552 kts | 75° |
| 2026-04-25 16:14 | 21.73731 | -46.68145 | 39089 ft | 557 kts | 75° |
| 2026-04-25 16:15 | 21.75447 | -46.60012 | 39093 ft | 561 kts | 75° |
| 2026-04-25 16:15 | 21.77169 | -46.51824 | 39087 ft | 564 kts | 75° |
| 2026-04-25 16:16 | 21.78906 | -46.43544 | 39083 ft | 566 kts | 75° |
| 2026-04-25 16:16 | 21.80633 | -46.35294 | 39078 ft | 566 kts | 75° |
| 2026-04-25 16:17 | 21.82350 | -46.27068 | 39089 ft | 565 kts | 76° |
| 2026-04-25 16:17 | 21.84072 | -46.18798 | 39081 ft | 564 kts | 76° |
| 2026-04-25 16:18 | 21.85776 | -46.10590 | 39081 ft | 562 kts | 76° |
| 2026-04-25 16:18 | 21.87468 | -46.02419 | 39080 ft | 560 kts | 76° |
| 2026-04-25 16:19 | 21.89161 | -45.94222 | 39080 ft | 559 kts | 76° |
| 2026-04-25 16:19 | 21.90850 | -45.86029 | 39098 ft | 558 kts | 76° |
| 2026-04-25 16:20 | 21.93364 | -45.73790 | 39093 ft | 559 kts | 76° |
| 2026-04-25 16:21 | 21.95872 | -45.61527 | 39090 ft | 561 kts | 76° |
| 2026-04-25 16:21 | 21.97552 | -45.53289 | 39084 ft | 561 kts | 76° |
| 2026-04-25 16:22 | 21.99218 | -45.45093 | 39105 ft | 561 kts | 76° |
| 2026-04-25 16:22 | 22.00885 | -45.36874 | 39090 ft | 563 kts | 76° |
| 2026-04-25 16:23 | 22.02550 | -45.28639 | 39091 ft | 563 kts | 76° |
| 2026-04-25 16:23 | 22.04220 | -45.20357 | 39092 ft | 564 kts | 76° |
| 2026-04-25 16:24 | 22.05875 | -45.12129 | 39088 ft | 564 kts | 76° |
| 2026-04-25 16:24 | 22.07538 | -45.03839 | 39089 ft | 564 kts | 76° |
| 2026-04-25 16:25 | 22.09188 | -44.95591 | 39096 ft | 564 kts | 76° |
| 2026-04-25 16:25 | 22.10835 | -44.87335 | 39078 ft | 564 kts | 76° |
| 2026-04-25 16:26 | 22.12480 | -44.79060 | 39091 ft | 563 kts | 76° |
| 2026-04-25 16:26 | 22.14116 | -44.70814 | 39085 ft | 562 kts | 76° |
| 2026-04-25 16:27 | 22.15739 | -44.62613 | 39089 ft | 561 kts | 76° |
| 2026-04-25 16:27 | 22.17365 | -44.54370 | 39095 ft | 561 kts | 76° |
| 2026-04-25 16:28 | 22.18988 | -44.46121 | 39093 ft | 561 kts | 76° |
| 2026-04-25 16:28 | 22.20600 | -44.37903 | 39088 ft | 561 kts | 76° |
| 2026-04-25 16:29 | 22.22209 | -44.29680 | 39093 ft | 562 kts | 76° |
| 2026-04-25 16:29 | 22.23825 | -44.21399 | 39100 ft | 562 kts | 76° |
| 2026-04-25 16:30 | 22.25424 | -44.13180 | 39090 ft | 563 kts | 76° |
| 2026-04-25 16:30 | 22.27029 | -44.04908 | 39095 ft | 563 kts | 76° |
| 2026-04-25 16:31 | 22.28636 | -43.96600 | 39105 ft | 564 kts | 76° |
| 2026-04-25 16:31 | 22.30235 | -43.88311 | 39094 ft | 565 kts | 76° |
| 2026-04-25 16:32 | 22.31834 | -43.79996 | 39098 ft | 565 kts | 76° |
| 2026-04-25 16:32 | 22.33426 | -43.71694 | 39095 ft | 566 kts | 76° |
| 2026-04-25 16:33 | 22.35016 | -43.63382 | 39099 ft | 566 kts | 76° |
| 2026-04-25 16:33 | 22.36604 | -43.55055 | 39099 ft | 566 kts | 76° |
| 2026-04-25 16:34 | 22.38193 | -43.46693 | 39095 ft | 566 kts | 76° |
| 2026-04-25 16:34 | 22.39774 | -43.38353 | 39099 ft | 566 kts | 76° |
| 2026-04-25 16:35 | 22.41344 | -43.30051 | 39094 ft | 566 kts | 76° |
| 2026-04-25 16:35 | 22.42917 | -43.21702 | 39092 ft | 565 kts | 76° |
| 2026-04-25 16:36 | 22.44481 | -43.13377 | 39097 ft | 565 kts | 76° |
| 2026-04-25 16:36 | 22.46037 | -43.05072 | 39094 ft | 565 kts | 76° |
| 2026-04-25 16:37 | 22.47587 | -42.96777 | 39100 ft | 565 kts | 76° |
| 2026-04-25 16:37 | 22.49144 | -42.88418 | 39097 ft | 565 kts | 76° |
| 2026-04-25 16:38 | 22.50679 | -42.80147 | 39098 ft | 565 kts | 76° |
| 2026-04-25 16:38 | 22.52229 | -42.71776 | 39097 ft | 565 kts | 76° |
| 2026-04-25 16:39 | 22.53763 | -42.63468 | 39096 ft | 565 kts | 76° |
| 2026-04-25 16:39 | 22.55290 | -42.55165 | 39106 ft | 565 kts | 76° |
| 2026-04-25 16:40 | 22.56826 | -42.46796 | 39100 ft | 565 kts | 76° |
| 2026-04-25 16:40 | 22.58348 | -42.38475 | 39113 ft | 565 kts | 76° |
| 2026-04-25 16:41 | 22.59873 | -42.30114 | 39103 ft | 565 kts | 76° |
| 2026-04-25 16:41 | 22.62145 | -42.17604 | 39100 ft | 565 kts | 76° |
| 2026-04-25 16:42 | 22.63659 | -42.09240 | 39104 ft | 565 kts | 76° |
| 2026-04-25 16:42 | 22.65164 | -42.00897 | 39103 ft | 565 kts | 76° |
| 2026-04-25 16:43 | 22.66662 | -41.92568 | 39106 ft | 565 kts | 76° |
| 2026-04-25 16:43 | 22.68161 | -41.84205 | 39103 ft | 565 kts | 76° |
| 2026-04-25 16:44 | 22.69647 | -41.75891 | 39115 ft | 565 kts | 76° |
| 2026-04-25 16:44 | 22.71143 | -41.67493 | 39104 ft | 565 kts | 76° |
| 2026-04-25 16:45 | 22.72623 | -41.59160 | 39105 ft | 565 kts | 76° |
| 2026-04-25 16:45 | 22.74102 | -41.50810 | 39104 ft | 565 kts | 76° |
| 2026-04-25 16:46 | 22.75580 | -41.42433 | 39105 ft | 565 kts | 76° |
| 2026-04-25 16:46 | 22.76557 | -41.36883 | 39103 ft | 565 kts | 76° |
| 2026-04-25 16:47 | 22.78513 | -41.25737 | 39104 ft | 565 kts | 76° |
| 2026-04-25 16:47 | 22.79973 | -41.17385 | 39106 ft | 565 kts | 76° |
| 2026-04-25 16:48 | 22.81428 | -41.09036 | 39103 ft | 565 kts | 76° |
| 2026-04-25 16:48 | 22.82885 | -41.00651 | 39104 ft | 565 kts | 76° |
| 2026-04-25 16:49 | 22.84340 | -40.92245 | 39108 ft | 565 kts | 76° |
| 2026-04-25 16:49 | 22.85781 | -40.83895 | 39106 ft | 566 kts | 76° |
| 2026-04-25 16:50 | 22.87220 | -40.75530 | 39103 ft | 566 kts | 76° |
| 2026-04-25 16:50 | 22.88663 | -40.67115 | 39112 ft | 566 kts | 76° |
| 2026-04-25 16:51 | 22.90095 | -40.58737 | 39104 ft | 567 kts | 76° |
| 2026-04-25 16:51 | 22.91047 | -40.53150 | 39104 ft | 567 kts | 76° |
| 2026-04-25 16:52 | 22.92952 | -40.41933 | 39106 ft | 568 kts | 76° |
| 2026-04-25 16:52 | 22.94383 | -40.33476 | 39108 ft | 568 kts | 76° |
| 2026-04-25 16:53 | 22.96514 | -40.20831 | 39113 ft | 569 kts | 76° |
| 2026-04-25 16:54 | 22.97928 | -40.12403 | 39108 ft | 569 kts | 76° |
| 2026-04-25 16:54 | 22.99015 | -40.05370 | 39103 ft | 571 kts | 82° |
| 2026-04-25 16:55 | 22.98821 | -39.95297 | 39116 ft | 576 kts | 97° |
| 2026-04-25 16:55 | 22.97394 | -39.88221 | 39114 ft | 575 kts | 105° |
| 2026-04-25 16:56 | 22.95306 | -39.79860 | 39121 ft | 575 kts | 105° |
| 2026-04-25 16:56 | 22.93227 | -39.71456 | 39108 ft | 575 kts | 105° |
| 2026-04-25 16:57 | 22.91208 | -39.63051 | 39111 ft | 576 kts | 104° |
| 2026-04-25 16:57 | 22.89212 | -39.54651 | 39115 ft | 576 kts | 104° |
| 2026-04-25 16:58 | 22.87212 | -39.46260 | 39090 ft | 576 kts | 104° |
| 2026-04-25 16:58 | 22.85190 | -39.37823 | 39112 ft | 576 kts | 105° |
| 2026-04-25 16:59 | 22.83177 | -39.29456 | 39103 ft | 576 kts | 105° |
| 2026-04-25 16:59 | 22.81145 | -39.21033 | 39110 ft | 575 kts | 105° |
| 2026-04-25 17:00 | 22.79124 | -39.12670 | 39108 ft | 575 kts | 105° |
| 2026-04-25 17:00 | 22.77086 | -39.04260 | 39111 ft | 576 kts | 105° |
| 2026-04-25 17:01 | 22.75057 | -38.95907 | 39104 ft | 575 kts | 105° |
| 2026-04-25 17:01 | 22.73019 | -38.87536 | 39107 ft | 575 kts | 105° |
| 2026-04-25 17:02 | 22.70977 | -38.79169 | 39108 ft | 575 kts | 105° |
| 2026-04-25 17:02 | 22.68937 | -38.70831 | 39108 ft | 574 kts | 105° |
| 2026-04-25 17:03 | 22.66883 | -38.62458 | 39115 ft | 574 kts | 105° |
| 2026-04-25 17:03 | 22.64826 | -38.54093 | 39107 ft | 575 kts | 105° |
| 2026-04-25 17:04 | 22.62765 | -38.45728 | 39100 ft | 574 kts | 105° |
| 2026-04-25 17:04 | 22.60710 | -38.37411 | 39109 ft | 573 kts | 105° |
| 2026-04-25 17:05 | 22.58655 | -38.29110 | 39108 ft | 573 kts | 105° |
| 2026-04-25 17:05 | 22.55546 | -38.16594 | 39117 ft | 573 kts | 105° |
| 2026-04-25 17:06 | 22.53480 | -38.08301 | 39103 ft | 573 kts | 105° |
| 2026-04-25 17:06 | 22.51396 | -37.99953 | 39107 ft | 574 kts | 105° |
| 2026-04-25 17:07 | 22.49316 | -37.91642 | 39102 ft | 575 kts | 105° |
| 2026-04-25 17:07 | 22.47210 | -37.83248 | 39104 ft | 575 kts | 105° |
| 2026-04-25 17:08 | 22.45112 | -37.74906 | 39100 ft | 576 kts | 105° |
| 2026-04-25 17:08 | 22.43010 | -37.66567 | 39106 ft | 577 kts | 105° |
| 2026-04-25 17:09 | 22.40902 | -37.58225 | 39103 ft | 577 kts | 105° |
| 2026-04-25 17:09 | 22.38787 | -37.49869 | 39096 ft | 577 kts | 105° |
| 2026-04-25 17:10 | 22.36657 | -37.41480 | 39109 ft | 576 kts | 105° |
| 2026-04-25 17:10 | 22.34533 | -37.33131 | 39101 ft | 576 kts | 105° |
| 2026-04-25 17:11 | 22.32407 | -37.24793 | 39106 ft | 576 kts | 105° |
| 2026-04-25 17:11 | 22.30283 | -37.16485 | 39102 ft | 576 kts | 105° |
| 2026-04-25 17:12 | 22.28146 | -37.08144 | 39104 ft | 576 kts | 105° |
| 2026-04-25 17:12 | 22.26000 | -36.99786 | 39097 ft | 576 kts | 105° |
| 2026-04-25 17:13 | 22.24218 | -36.92858 | 39102 ft | 575 kts | 105° |
| 2026-04-25 17:13 | 22.21717 | -36.83164 | 39104 ft | 575 kts | 105° |
| 2026-04-25 17:14 | 22.19573 | -36.74870 | 39104 ft | 575 kts | 105° |
| 2026-04-25 17:14 | 22.17414 | -36.66538 | 39104 ft | 576 kts | 105° |
| 2026-04-25 17:15 | 22.15264 | -36.58257 | 39103 ft | 576 kts | 105° |
| 2026-04-25 17:15 | 22.13093 | -36.49918 | 39094 ft | 576 kts | 105° |
| 2026-04-25 17:16 | 22.10935 | -36.41647 | 39104 ft | 575 kts | 105° |
| 2026-04-25 17:16 | 22.08767 | -36.33352 | 39102 ft | 575 kts | 105° |
| 2026-04-25 17:17 | 22.06586 | -36.25029 | 39112 ft | 574 kts | 105° |
| 2026-04-25 17:17 | 22.04421 | -36.16783 | 39104 ft | 574 kts | 105° |
| 2026-04-25 17:18 | 22.02236 | -36.08482 | 39103 ft | 575 kts | 106° |
| 2026-04-25 17:18 | 22.00048 | -36.00229 | 39098 ft | 574 kts | 107° |
| 2026-04-25 17:19 | 21.97338 | -35.92118 | 39113 ft | 572 kts | 112° |
| 2026-04-25 17:19 | 21.94476 | -35.84160 | 39101 ft | 573 kts | 112° |
| 2026-04-25 17:20 | 21.91603 | -35.76146 | 39101 ft | 573 kts | 112° |
| 2026-04-25 17:20 | 21.88752 | -35.68096 | 39103 ft | 573 kts | 111° |
| 2026-04-25 17:21 | 21.85930 | -35.60100 | 39100 ft | 573 kts | 111° |
| 2026-04-25 17:21 | 21.83088 | -35.52062 | 39093 ft | 573 kts | 111° |
| 2026-04-25 17:22 | 21.80724 | -35.45395 | 39106 ft | 573 kts | 111° |
| 2026-04-25 17:22 | 21.77404 | -35.36056 | 39100 ft | 573 kts | 111° |
| 2026-04-25 17:23 | 21.74560 | -35.28071 | 39098 ft | 573 kts | 112° |
| 2026-04-25 17:23 | 21.71703 | -35.20061 | 39103 ft | 573 kts | 111° |
| 2026-04-25 17:24 | 21.68854 | -35.12087 | 39084 ft | 573 kts | 112° |
| 2026-04-25 17:24 | 21.66002 | -35.04121 | 39093 ft | 572 kts | 112° |
| 2026-04-25 17:25 | 21.63138 | -34.96131 | 39102 ft | 572 kts | 112° |
| 2026-04-25 17:25 | 21.60267 | -34.88140 | 39097 ft | 572 kts | 112° |
| 2026-04-25 17:26 | 21.57410 | -34.80201 | 39094 ft | 572 kts | 112° |
| 2026-04-25 17:26 | 21.54537 | -34.72229 | 39100 ft | 572 kts | 112° |
| 2026-04-25 17:27 | 21.51663 | -34.64268 | 39086 ft | 571 kts | 112° |
| 2026-04-25 17:27 | 21.49748 | -34.58972 | 39092 ft | 571 kts | 112° |
| 2026-04-25 17:28 | 21.45912 | -34.48380 | 39093 ft | 571 kts | 112° |
| 2026-04-25 17:28 | 21.43018 | -34.40405 | 39092 ft | 571 kts | 112° |
| 2026-04-25 17:29 | 21.40140 | -34.32487 | 39093 ft | 571 kts | 112° |
| 2026-04-25 17:29 | 21.37257 | -34.24571 | 39093 ft | 572 kts | 112° |
| 2026-04-25 17:30 | 21.34352 | -34.16605 | 39096 ft | 571 kts | 112° |
| 2026-04-25 17:30 | 21.31450 | -34.08663 | 39096 ft | 571 kts | 112° |
| 2026-04-25 17:31 | 21.28555 | -34.00753 | 39090 ft | 571 kts | 112° |
| 2026-04-25 17:31 | 21.25659 | -33.92851 | 39089 ft | 571 kts | 112° |
| 2026-04-25 17:32 | 21.22756 | -33.84946 | 39087 ft | 571 kts | 112° |
| 2026-04-25 17:32 | 21.19836 | -33.77005 | 39078 ft | 570 kts | 112° |
| 2026-04-25 17:33 | 21.16937 | -33.69137 | 39097 ft | 569 kts | 112° |
| 2026-04-25 17:33 | 21.14025 | -33.61246 | 39083 ft | 568 kts | 112° |
| 2026-04-25 17:34 | 21.11111 | -33.53361 | 39089 ft | 568 kts | 112° |
| 2026-04-25 17:34 | 21.08205 | -33.45513 | 39085 ft | 568 kts | 112° |
| 2026-04-25 17:35 | 21.05294 | -33.37665 | 39086 ft | 568 kts | 112° |
| 2026-04-25 17:35 | 21.02388 | -33.29839 | 39088 ft | 568 kts | 112° |
| 2026-04-25 17:36 | 20.99456 | -33.21960 | 39088 ft | 568 kts | 112° |
| 2026-04-25 17:36 | 20.96539 | -33.14130 | 39092 ft | 569 kts | 112° |
| 2026-04-25 17:37 | 20.93596 | -33.06246 | 39085 ft | 570 kts | 112° |
| 2026-04-25 17:37 | 20.90662 | -32.98398 | 39085 ft | 570 kts | 112° |
| 2026-04-25 17:38 | 20.88702 | -32.93164 | 39082 ft | 570 kts | 112° |
| 2026-04-25 17:38 | 20.84759 | -32.82648 | 39059 ft | 571 kts | 112° |
| 2026-04-25 17:39 | 20.81809 | -32.74794 | 39084 ft | 570 kts | 113° |
| 2026-04-25 17:39 | 20.78856 | -32.66946 | 39074 ft | 570 kts | 113° |
| 2026-04-25 17:40 | 20.75884 | -32.59060 | 39083 ft | 570 kts | 113° |
| 2026-04-25 17:40 | 20.72933 | -32.51242 | 39075 ft | 570 kts | 113° |
| 2026-04-25 17:41 | 20.70459 | -32.44699 | 39077 ft | 570 kts | 113° |
| 2026-04-25 17:41 | 20.66993 | -32.35543 | 39046 ft | 570 kts | 113° |
| 2026-04-25 17:42 | 20.64517 | -32.29014 | 39081 ft | 569 kts | 113° |
| 2026-04-25 17:42 | 20.61534 | -32.21159 | 39068 ft | 569 kts | 113° |
| 2026-04-25 17:43 | 20.58573 | -32.13374 | 39069 ft | 568 kts | 113° |
| 2026-04-25 17:43 | 20.55605 | -32.05583 | 39075 ft | 568 kts | 113° |
| 2026-04-25 17:44 | 20.52613 | -31.97740 | 39068 ft | 568 kts | 113° |
| 2026-04-25 17:44 | 20.49641 | -31.89963 | 39072 ft | 568 kts | 113° |
| 2026-04-25 17:45 | 20.47154 | -31.83464 | 39060 ft | 567 kts | 113° |
| 2026-04-25 17:45 | 20.43674 | -31.74379 | 39070 ft | 567 kts | 113° |
| 2026-04-25 17:46 | 20.40581 | -31.66650 | 39061 ft | 566 kts | 116° |
| 2026-04-25 17:46 | 20.37207 | -31.59081 | 39064 ft | 565 kts | 117° |
| 2026-04-25 17:47 | 20.33781 | -31.51508 | 39073 ft | 565 kts | 117° |
| 2026-04-25 17:47 | 20.30422 | -31.43959 | 39064 ft | 566 kts | 116° |
| 2026-04-25 17:48 | 20.25423 | -31.32596 | 39051 ft | 565 kts | 116° |
| 2026-04-25 17:49 | 20.22077 | -31.24999 | 39057 ft | 565 kts | 116° |
| 2026-04-25 17:49 | 20.18744 | -31.17456 | 39060 ft | 564 kts | 116° |
| 2026-04-25 17:50 | 20.15396 | -31.09897 | 39059 ft | 564 kts | 116° |
| 2026-04-25 17:50 | 20.12060 | -31.02372 | 39058 ft | 564 kts | 116° |
| 2026-04-25 17:51 | 20.08704 | -30.94812 | 39044 ft | 564 kts | 116° |
| 2026-04-25 17:51 | 20.05358 | -30.87287 | 39053 ft | 563 kts | 116° |
| 2026-04-25 17:52 | 20.02022 | -30.79792 | 39057 ft | 562 kts | 116° |
| 2026-04-25 17:52 | 19.98660 | -30.72249 | 39054 ft | 562 kts | 116° |
| 2026-04-25 17:53 | 19.95325 | -30.64778 | 39061 ft | 562 kts | 116° |
| 2026-04-25 17:53 | 19.91963 | -30.57258 | 39052 ft | 562 kts | 116° |
| 2026-04-25 17:54 | 19.88621 | -30.49791 | 39033 ft | 562 kts | 116° |
| 2026-04-25 17:54 | 19.85254 | -30.42278 | 39059 ft | 561 kts | 116° |
| 2026-04-25 17:55 | 19.81911 | -30.34829 | 39045 ft | 560 kts | 116° |
| 2026-04-25 17:55 | 19.78550 | -30.27351 | 39045 ft | 560 kts | 116° |
| 2026-04-25 17:56 | 19.75194 | -30.19894 | 39054 ft | 559 kts | 117° |
| 2026-04-25 17:56 | 19.71848 | -30.12469 | 39046 ft | 559 kts | 117° |
| 2026-04-25 17:57 | 19.68476 | -30.04996 | 39025 ft | 560 kts | 117° |
| 2026-04-25 17:57 | 19.65120 | -29.97567 | 39050 ft | 559 kts | 117° |
| 2026-04-25 17:58 | 19.61771 | -29.90166 | 39044 ft | 558 kts | 117° |
| 2026-04-25 17:58 | 19.58412 | -29.82751 | 39046 ft | 558 kts | 117° |
| 2026-04-25 17:59 | 19.55055 | -29.75350 | 39036 ft | 558 kts | 117° |
| 2026-04-25 17:59 | 19.51681 | -29.67923 | 39035 ft | 558 kts | 117° |
| 2026-04-25 18:00 | 19.48314 | -29.60520 | 39051 ft | 558 kts | 117° |
| 2026-04-25 18:00 | 19.44951 | -29.53135 | 39050 ft | 557 kts | 117° |
| 2026-04-25 18:01 | 19.41568 | -29.45715 | 39041 ft | 557 kts | 117° |
| 2026-04-25 18:01 | 19.38198 | -29.38335 | 39037 ft | 556 kts | 117° |
| 2026-04-25 18:02 | 19.34837 | -29.30984 | 39034 ft | 556 kts | 117° |
| 2026-04-25 18:02 | 19.31464 | -29.23614 | 39036 ft | 555 kts | 117° |
| 2026-04-25 18:03 | 19.28105 | -29.16287 | 39042 ft | 555 kts | 117° |
| 2026-04-25 18:03 | 19.24720 | -29.08912 | 39016 ft | 555 kts | 117° |
| 2026-04-25 18:04 | 19.21356 | -29.01591 | 39033 ft | 554 kts | 117° |
| 2026-04-25 18:04 | 19.17987 | -28.94269 | 39036 ft | 554 kts | 117° |
| 2026-04-25 18:05 | 19.14601 | -28.86920 | 39033 ft | 554 kts | 117° |
| 2026-04-25 18:05 | 19.11231 | -28.79614 | 39033 ft | 554 kts | 117° |
| 2026-04-25 18:06 | 19.07862 | -28.72321 | 39027 ft | 554 kts | 117° |
| 2026-04-25 18:06 | 19.04470 | -28.64986 | 39030 ft | 554 kts | 117° |
| 2026-04-25 18:07 | 19.01090 | -28.57688 | 39023 ft | 554 kts | 117° |
| 2026-04-25 18:07 | 18.97696 | -28.50366 | 39023 ft | 554 kts | 117° |
| 2026-04-25 18:08 | 18.94311 | -28.43074 | 39023 ft | 554 kts | 117° |
| 2026-04-25 18:08 | 18.90924 | -28.35787 | 39022 ft | 554 kts | 117° |
| 2026-04-25 18:09 | 18.87526 | -28.28485 | 39023 ft | 554 kts | 117° |
| 2026-04-25 18:09 | 18.84109 | -28.21153 | 39021 ft | 554 kts | 118° |
| 2026-04-25 18:10 | 18.80711 | -28.13869 | 39015 ft | 554 kts | 118° |
| 2026-04-25 18:10 | 18.77316 | -28.06601 | 39017 ft | 553 kts | 118° |
| 2026-04-25 18:11 | 18.73916 | -27.99329 | 39026 ft | 552 kts | 118° |
| 2026-04-25 18:11 | 18.70503 | -27.92040 | 39021 ft | 551 kts | 118° |
| 2026-04-25 18:12 | 18.67108 | -27.84800 | 39019 ft | 550 kts | 118° |
| 2026-04-25 18:12 | 18.63720 | -27.77582 | 39019 ft | 550 kts | 118° |
| 2026-04-25 18:13 | 18.60329 | -27.70367 | 39022 ft | 550 kts | 118° |
| 2026-04-25 18:13 | 18.56924 | -27.63130 | 39012 ft | 549 kts | 118° |
| 2026-04-25 18:14 | 18.51846 | -27.52354 | 39021 ft | 549 kts | 118° |
| 2026-04-25 18:14 | 18.48431 | -27.45119 | 39022 ft | 549 kts | 118° |
| 2026-04-25 18:15 | 18.45042 | -27.37946 | 39014 ft | 549 kts | 118° |
| 2026-04-25 18:15 | 18.41621 | -27.30715 | 39018 ft | 550 kts | 118° |
| 2026-04-25 18:16 | 18.38217 | -27.23528 | 39016 ft | 550 kts | 118° |
| 2026-04-25 18:17 | 18.33073 | -27.12685 | 39013 ft | 550 kts | 118° |
| 2026-04-25 18:17 | 18.29668 | -27.05516 | 39014 ft | 550 kts | 118° |
| 2026-04-25 18:18 | 18.26232 | -26.98293 | 39008 ft | 551 kts | 118° |
| 2026-04-25 18:18 | 18.22800 | -26.91085 | 39008 ft | 550 kts | 118° |
| 2026-04-25 18:19 | 18.19377 | -26.83904 | 39012 ft | 550 kts | 118° |
| 2026-04-25 18:19 | 18.15946 | -26.76715 | 39006 ft | 550 kts | 118° |
| 2026-04-25 18:20 | 18.12522 | -26.69551 | 38995 ft | 550 kts | 118° |
| 2026-04-25 18:20 | 18.09071 | -26.62336 | 39001 ft | 549 kts | 118° |
| 2026-04-25 18:21 | 18.05664 | -26.55223 | 39014 ft | 548 kts | 118° |
| 2026-04-25 18:21 | 18.02227 | -26.48056 | 39005 ft | 548 kts | 118° |
| 2026-04-25 18:22 | 17.98807 | -26.40931 | 39001 ft | 548 kts | 119° |
| 2026-04-25 18:22 | 17.95363 | -26.33765 | 39001 ft | 547 kts | 119° |
| 2026-04-25 18:23 | 17.91937 | -26.26646 | 39003 ft | 547 kts | 119° |
| 2026-04-25 18:23 | 17.88488 | -26.19486 | 38991 ft | 547 kts | 119° |
| 2026-04-25 18:24 | 17.85058 | -26.12373 | 38998 ft | 546 kts | 119° |
| 2026-04-25 18:24 | 17.81636 | -26.05280 | 38997 ft | 546 kts | 119° |
| 2026-04-25 18:25 | 17.78151 | -25.98190 | 38999 ft | 545 kts | 120° |
| 2026-04-25 18:25 | 17.74532 | -25.91261 | 38998 ft | 544 kts | 121° |
| 2026-04-25 18:26 | 17.70849 | -25.84299 | 39000 ft | 544 kts | 121° |
| 2026-04-25 18:26 | 17.67215 | -25.77374 | 38991 ft | 544 kts | 121° |
| 2026-04-25 18:27 | 17.63573 | -25.70396 | 38986 ft | 544 kts | 121° |
| 2026-04-25 18:27 | 17.59961 | -25.63474 | 38991 ft | 543 kts | 121° |
| 2026-04-25 18:28 | 17.56936 | -25.57684 | 38991 ft | 543 kts | 121° |
| 2026-04-25 18:28 | 17.52702 | -25.49597 | 38990 ft | 543 kts | 121° |
| 2026-04-25 18:29 | 17.47859 | -25.40358 | 38992 ft | 543 kts | 121° |
| 2026-04-25 18:30 | 17.40579 | -25.26496 | 38973 ft | 543 kts | 121° |
| 2026-04-25 18:30 | 17.36945 | -25.19588 | 38984 ft | 544 kts | 121° |
| 2026-04-25 18:31 | 17.33284 | -25.12635 | 38987 ft | 545 kts | 121° |
| 2026-04-25 18:31 | 17.29626 | -25.05694 | 38982 ft | 546 kts | 121° |
| 2026-04-25 18:32 | 17.25938 | -24.98704 | 38991 ft | 547 kts | 121° |
| 2026-04-25 18:32 | 17.22261 | -24.91743 | 38984 ft | 548 kts | 121° |
| 2026-04-25 18:33 | 17.18581 | -24.84783 | 38983 ft | 549 kts | 121° |
| 2026-04-25 18:33 | 17.14872 | -24.77776 | 38975 ft | 549 kts | 121° |
| 2026-04-25 18:34 | 17.11182 | -24.70810 | 38976 ft | 549 kts | 121° |
| 2026-04-25 18:34 | 17.07471 | -24.63814 | 38972 ft | 548 kts | 121° |
| 2026-04-25 18:35 | 17.03784 | -24.56871 | 38971 ft | 547 kts | 121° |
| 2026-04-25 18:35 | 17.00106 | -24.49949 | 38986 ft | 546 kts | 121° |
| 2026-04-25 18:36 | 16.96405 | -24.42995 | 38955 ft | 545 kts | 121° |
| 2026-04-25 18:36 | 16.92735 | -24.36102 | 38961 ft | 545 kts | 121° |
| 2026-04-25 18:37 | 16.89052 | -24.29195 | 38955 ft | 545 kts | 121° |
| 2026-04-25 18:37 | 16.85357 | -24.22271 | 38968 ft | 544 kts | 121° |
| 2026-04-25 18:38 | 16.81686 | -24.15400 | 38967 ft | 543 kts | 121° |
| 2026-04-25 18:38 | 16.78005 | -24.08518 | 38956 ft | 543 kts | 121° |
| 2026-04-25 18:39 | 16.74317 | -24.01628 | 38958 ft | 543 kts | 122° |
| 2026-04-25 18:39 | 16.70649 | -23.94781 | 38977 ft | 542 kts | 122° |
| 2026-04-25 18:40 | 16.66977 | -23.87936 | 38975 ft | 542 kts | 122° |
| 2026-04-25 18:40 | 16.63276 | -23.81043 | 38959 ft | 543 kts | 122° |
| 2026-04-25 18:41 | 16.59599 | -23.74202 | 38958 ft | 543 kts | 122° |
| 2026-04-25 18:41 | 16.55912 | -23.67348 | 38952 ft | 543 kts | 122° |
| 2026-04-25 18:42 | 16.52829 | -23.61622 | 38964 ft | 543 kts | 122° |
| 2026-04-25 18:42 | 16.48519 | -23.53627 | 38965 ft | 543 kts | 122° |
| 2026-04-25 18:43 | 16.44821 | -23.46772 | 38945 ft | 543 kts | 122° |
| 2026-04-25 18:43 | 16.41107 | -23.39897 | 38947 ft | 543 kts | 122° |
| 2026-04-25 18:44 | 16.37418 | -23.33073 | 38932 ft | 543 kts | 122° |
| 2026-04-25 18:44 | 16.33718 | -23.26236 | 38954 ft | 542 kts | 122° |
| 2026-04-25 18:45 | 16.30003 | -23.19377 | 38949 ft | 541 kts | 122° |
| 2026-04-25 18:45 | 16.26316 | -23.12577 | 38952 ft | 540 kts | 122° |
| 2026-04-25 18:46 | 16.22628 | -23.05781 | 38938 ft | 540 kts | 122° |
| 2026-04-25 18:46 | 16.18920 | -22.98955 | 38941 ft | 540 kts | 122° |
| 2026-04-25 18:47 | 16.15242 | -22.92188 | 38944 ft | 540 kts | 122° |
| 2026-04-25 18:47 | 16.11541 | -22.85355 | 38945 ft | 540 kts | 122° |
| 2026-04-25 18:48 | 16.07918 | -22.78532 | 38937 ft | 540 kts | 121° |
| 2026-04-25 18:48 | 16.04305 | -22.71696 | 38942 ft | 540 kts | 121° |
| 2026-04-25 18:49 | 16.00667 | -22.64838 | 38945 ft | 540 kts | 121° |
| 2026-04-25 18:49 | 15.97046 | -22.58037 | 38947 ft | 540 kts | 121° |
| 2026-04-25 18:50 | 15.93411 | -22.51217 | 38949 ft | 539 kts | 121° |
| 2026-04-25 18:50 | 15.89761 | -22.44375 | 38948 ft | 539 kts | 121° |
| 2026-04-25 18:51 | 15.86747 | -22.38730 | 38943 ft | 539 kts | 121° |
| 2026-04-25 18:51 | 15.82488 | -22.30760 | 38937 ft | 539 kts | 121° |
| 2026-04-25 18:52 | 15.78855 | -22.23966 | 38942 ft | 539 kts | 121° |
| 2026-04-25 18:52 | 15.75223 | -22.17183 | 38939 ft | 539 kts | 121° |
| 2026-04-25 18:53 | 15.71577 | -22.10379 | 38939 ft | 538 kts | 121° |
| 2026-04-25 18:53 | 15.67938 | -22.03594 | 38939 ft | 538 kts | 121° |
| 2026-04-25 18:54 | 15.62471 | -21.93414 | 38936 ft | 538 kts | 121° |
| 2026-04-25 18:55 | 15.58837 | -21.86656 | 38935 ft | 538 kts | 121° |
| 2026-04-25 18:55 | 15.55174 | -21.79848 | 38932 ft | 538 kts | 121° |
| 2026-04-25 18:56 | 15.51541 | -21.73104 | 38935 ft | 538 kts | 121° |
| 2026-04-25 18:56 | 15.47891 | -21.66333 | 38934 ft | 537 kts | 121° |
| 2026-04-25 18:57 | 15.44246 | -21.59579 | 38933 ft | 537 kts | 121° |
| 2026-04-25 18:57 | 15.40591 | -21.52811 | 38932 ft | 537 kts | 121° |
| 2026-04-25 18:58 | 15.36952 | -21.46081 | 38933 ft | 537 kts | 121° |
| 2026-04-25 18:58 | 15.31466 | -21.35944 | 38927 ft | 537 kts | 121° |
| 2026-04-25 18:59 | 15.24165 | -21.22475 | 38926 ft | 536 kts | 121° |
| 2026-04-25 19:00 | 15.18711 | -21.12428 | 38931 ft | 535 kts | 121° |
| 2026-04-25 19:01 | 15.13244 | -21.02372 | 38923 ft | 534 kts | 121° |
| 2026-04-25 19:01 | 15.09578 | -20.95638 | 38926 ft | 534 kts | 121° |
| 2026-04-25 19:02 | 15.04110 | -20.85602 | 38919 ft | 534 kts | 121° |
| 2026-04-25 19:03 | 14.99854 | -20.77799 | 38914 ft | 534 kts | 121° |
| 2026-04-25 19:03 | 14.95008 | -20.68924 | 38918 ft | 533 kts | 121° |
| 2026-04-25 19:04 | 14.89526 | -20.58899 | 38916 ft | 532 kts | 121° |
| 2026-04-25 19:05 | 14.82260 | -20.45628 | 38915 ft | 531 kts | 121° |
| 2026-04-25 19:06 | 14.78608 | -20.38966 | 38913 ft | 531 kts | 121° |
| 2026-04-25 19:06 | 14.73150 | -20.29020 | 38916 ft | 531 kts | 121° |
| 2026-04-25 19:07 | 14.68015 | -20.18885 | 38907 ft | 532 kts | 112° |
| 2026-04-25 19:08 | 14.64542 | -20.08004 | 38905 ft | 532 kts | 109° |
| 2026-04-25 19:09 | 14.60733 | -19.95895 | 38907 ft | 532 kts | 109° |
| 2026-04-25 19:10 | 14.56462 | -19.82611 | 38911 ft | 532 kts | 109° |
| 2026-04-25 19:10 | 14.54128 | -19.75365 | 38909 ft | 532 kts | 109° |
| 2026-04-25 19:11 | 14.51789 | -19.68102 | 38904 ft | 532 kts | 109° |
| 2026-04-25 19:11 | 14.49470 | -19.60907 | 38888 ft | 523 kts | 109° |
| 2026-04-25 19:12 | 14.47210 | -19.53901 | 38886 ft | 512 kts | 109° |
| 2026-04-25 19:12 | 14.44959 | -19.46936 | 38899 ft | 512 kts | 109° |
| 2026-04-25 19:13 | 14.42700 | -19.39957 | 38903 ft | 511 kts | 109° |
| 2026-04-25 19:13 | 14.40460 | -19.33043 | 38892 ft | 511 kts | 109° |
| 2026-04-25 19:14 | 14.38570 | -19.27213 | 38897 ft | 510 kts | 109° |
| 2026-04-25 19:14 | 14.36328 | -19.20302 | 38894 ft | 510 kts | 109° |
| 2026-04-25 19:15 | 14.34072 | -19.13357 | 38799 ft | 503 kts | 109° |
| 2026-04-25 19:15 | 14.32980 | -19.10000 | 38426 ft | 496 kts | 109° |
| 2026-04-25 19:15 | 14.31884 | -19.06630 | 38389 ft | 493 kts | 109° |
| 2026-04-25 19:16 | 14.29686 | -18.99881 | 38192 ft | 498 kts | 109° |
| 2026-04-25 19:16 | 14.28578 | -18.96481 | 37492 ft | 497 kts | 109° |
| 2026-04-25 19:16 | 14.27470 | -18.93084 | 36755 ft | 497 kts | 109° |
| 2026-04-25 19:16 | 14.26379 | -18.89740 | 36102 ft | 497 kts | 108° |
| 2026-04-25 19:17 | 14.25276 | -18.86358 | 35554 ft | 493 kts | 108° |
| 2026-04-25 19:17 | 14.24187 | -18.83023 | 35084 ft | 489 kts | 108° |
| 2026-04-25 19:17 | 14.23114 | -18.79739 | 34629 ft | 484 kts | 108° |
| 2026-04-25 19:17 | 14.22039 | -18.76451 | 34156 ft | 480 kts | 108° |
| 2026-04-25 19:18 | 14.20972 | -18.73189 | 33640 ft | 477 kts | 108° |
| 2026-04-25 19:18 | 14.19926 | -18.69992 | 33094 ft | 474 kts | 108° |
| 2026-04-25 19:18 | 14.18874 | -18.66777 | 32580 ft | 471 kts | 108° |
| 2026-04-25 19:18 | 14.17830 | -18.63588 | 32112 ft | 471 kts | 107° |
| 2026-04-25 19:19 | 14.16770 | -18.60347 | 32090 ft | 477 kts | 107° |
| 2026-04-25 19:19 | 14.14642 | -18.53864 | 31791 ft | 473 kts | 107° |
| 2026-04-25 19:19 | 14.13944 | -18.51737 | 31461 ft | 469 kts | 107° |
| 2026-04-25 19:20 | 14.12561 | -18.47525 | 30726 ft | 466 kts | 107° |
| 2026-04-25 19:20 | 14.11522 | -18.44365 | 30185 ft | 464 kts | 107° |
| 2026-04-25 19:20 | 14.10492 | -18.41230 | 29579 ft | 461 kts | 107° |
| 2026-04-25 19:20 | 14.09476 | -18.38137 | 28967 ft | 458 kts | 107° |
| 2026-04-25 19:21 | 14.08457 | -18.35039 | 28354 ft | 455 kts | 107° |
| 2026-04-25 19:21 | 14.06431 | -18.28884 | 27164 ft | 450 kts | 107° |
| 2026-04-25 19:21 | 14.05424 | -18.25826 | 26611 ft | 447 kts | 108° |
| 2026-04-25 19:22 | 14.04441 | -18.22842 | 26125 ft | 442 kts | 108° |
| 2026-04-25 19:22 | 14.03454 | -18.19851 | 25660 ft | 437 kts | 108° |
| 2026-04-25 19:22 | 14.01522 | -18.13994 | 24819 ft | 428 kts | 108° |
| 2026-04-25 19:23 | 14.00571 | -18.11111 | 24547 ft | 420 kts | 108° |
| 2026-04-25 19:23 | 13.98725 | -18.05524 | 24037 ft | 405 kts | 108° |
| 2026-04-25 19:23 | 13.97935 | -18.02773 | 23603 ft | 397 kts | 97° |
| 2026-04-25 19:24 | 13.98041 | -17.99986 | 23014 ft | 394 kts | 72° |
| 2026-04-25 19:24 | 13.99150 | -17.97419 | 22510 ft | 389 kts | 57° |
| 2026-04-25 19:24 | 14.02053 | -17.92794 | 21618 ft | 383 kts | 52° |
| 2026-04-25 19:25 | 14.05244 | -17.88445 | 20605 ft | 383 kts | 50° |
| 2026-04-25 19:25 | 14.06883 | -17.86257 | 19976 ft | 386 kts | 50° |
| 2026-04-25 19:25 | 14.08500 | -17.84087 | 19200 ft | 378 kts | 50° |
| 2026-04-25 19:26 | 14.10076 | -17.81956 | 18445 ft | 371 kts | 51° |
| 2026-04-25 19:26 | 14.11634 | -17.79839 | 17912 ft | 372 kts | 51° |
| 2026-04-25 19:26 | 14.13197 | -17.77709 | 17328 ft | 381 kts | 51° |
| 2026-04-25 19:26 | 14.14839 | -17.75470 | 16741 ft | 402 kts | 51° |
| 2026-04-25 19:27 | 14.16589 | -17.73080 | 16119 ft | 423 kts | 52° |
| 2026-04-25 19:27 | 14.17763 | -17.71472 | 15704 ft | 424 kts | 52° |
| 2026-04-25 19:27 | 14.20103 | -17.68261 | 14865 ft | 421 kts | 52° |
| 2026-04-25 19:27 | 14.21857 | -17.65853 | 14242 ft | 418 kts | 52° |
| 2026-04-25 19:28 | 14.23605 | -17.63454 | 13636 ft | 416 kts | 53° |
| 2026-04-25 19:28 | 14.25317 | -17.61104 | 12980 ft | 413 kts | 53° |
| 2026-04-25 19:28 | 14.27036 | -17.58743 | 12340 ft | 409 kts | 53° |
| 2026-04-25 19:28 | 14.28747 | -17.56393 | 11723 ft | 402 kts | 53° |
| 2026-04-25 19:29 | 14.30366 | -17.54171 | 11126 ft | 379 kts | 53° |
| 2026-04-25 19:29 | 14.31908 | -17.52054 | 10639 ft | 357 kts | 53° |
| 2026-04-25 19:29 | 14.33344 | -17.50082 | 10469 ft | 329 kts | 54° |
| 2026-04-25 19:29 | 14.34661 | -17.48273 | 10100 ft | 309 kts | 54° |
| 2026-04-25 19:30 | 14.35970 | -17.46483 | 9741 ft | 314 kts | 54° |
| 2026-04-25 19:30 | 14.37283 | -17.44692 | 9702 ft | 314 kts | 54° |
| 2026-04-25 19:30 | 14.38601 | -17.42887 | 9683 ft | 313 kts | 54° |
| 2026-04-25 19:30 | 14.39892 | -17.41114 | 9658 ft | 312 kts | 54° |
| 2026-04-25 19:31 | 14.41190 | -17.39322 | 9599 ft | 309 kts | 54° |
| 2026-04-25 19:31 | 14.42482 | -17.37528 | 9177 ft | 313 kts | 54° |
| 2026-04-25 19:31 | 14.43781 | -17.35728 | 8667 ft | 307 kts | 53° |
| 2026-04-25 19:31 | 14.45036 | -17.33996 | 8159 ft | 295 kts | 53° |
| 2026-04-25 19:32 | 14.46236 | -17.32343 | 7687 ft | 285 kts | 52° |
| 2026-04-25 19:32 | 14.47202 | -17.30590 | 7168 ft | 280 kts | 75° |
| 2026-04-25 19:32 | 14.47137 | -17.28608 | 6730 ft | 287 kts | 109° |
| 2026-04-25 19:32 | 14.46452 | -17.27403 | 6420 ft | 292 kts | 132° |
| 2026-04-25 19:33 | 14.44438 | -17.25643 | 6075 ft | 282 kts | 136° |
| 2026-04-25 19:33 | 14.43130 | -17.24178 | 6009 ft | 274 kts | 126° |
| 2026-04-25 19:33 | 14.42078 | -17.22589 | 5997 ft | 260 kts | 119° |
| 2026-04-25 19:33 | 14.41241 | -17.21026 | 5989 ft | 244 kts | 115° |
| 2026-04-25 19:34 | 14.40507 | -17.19479 | 5995 ft | 235 kts | 113° |
| 2026-04-25 19:34 | 14.39840 | -17.17931 | 5995 ft | 239 kts | 109° |
| 2026-04-25 19:34 | 14.39251 | -17.16346 | 6006 ft | 236 kts | 107° |
| 2026-04-25 19:34 | 14.38753 | -17.14731 | 5990 ft | 234 kts | 103° |
| 2026-04-25 19:35 | 14.38335 | -17.13116 | 5923 ft | 231 kts | 100° |
| 2026-04-25 19:35 | 14.38020 | -17.11510 | 5721 ft | 230 kts | 96° |
| 2026-04-25 19:35 | 14.38054 | -17.09910 | 5455 ft | 221 kts | 68° |
| 2026-04-25 19:35 | 14.38822 | -17.08592 | 5319 ft | 208 kts | 43° |
| 2026-04-25 19:36 | 14.39830 | -17.07612 | 5148 ft | 198 kts | 48° |
| 2026-04-25 19:36 | 14.40618 | -17.06461 | 4824 ft | 193 kts | 40° |
| 2026-04-25 19:36 | 14.41796 | -17.06015 | 4541 ft | 181 kts | 351° |
| 2026-04-25 19:36 | 14.42971 | -17.06441 | 4186 ft | 179 kts | 342° |
| 2026-04-25 19:37 | 14.44191 | -17.06748 | 4045 ft | 184 kts | 351° |
| 2026-04-25 19:37 | 14.45487 | -17.06928 | 3986 ft | 187 kts | 354° |
| 2026-04-25 19:37 | 14.46786 | -17.07044 | 3741 ft | 185 kts | 357° |
| 2026-04-25 19:37 | 14.48045 | -17.07091 | 3524 ft | 181 kts | 359° |
| 2026-04-25 19:38 | 14.49296 | -17.07113 | 3307 ft | 177 kts | 0° |
| 2026-04-25 19:38 | 14.50528 | -17.07126 | 3076 ft | 178 kts | 359° |
| 2026-04-25 19:38 | 14.51768 | -17.07139 | 2855 ft | 179 kts | 0° |
| 2026-04-25 19:38 | 14.53021 | -17.07150 | 2653 ft | 180 kts | 359° |
| 2026-04-25 19:39 | 14.54270 | -17.07161 | 2405 ft | 177 kts | 360° |
| 2026-04-25 19:39 | 14.55459 | -17.07174 | 2199 ft | 169 kts | 1° |
| 2026-04-25 19:39 | 14.56648 | -17.07184 | 1984 ft | 173 kts | 1° |
| 2026-04-25 19:39 | 14.57889 | -17.07195 | 1760 ft | 181 kts | 1° |
| 2026-04-25 19:40 | 14.59099 | -17.07207 | 1556 ft | 166 kts | 1° |
| 2026-04-25 19:40 | 14.60213 | -17.07218 | 1307 ft | 152 kts | 0° |
| 2026-04-25 19:40 | 14.61221 | -17.07227 | 1133 ft | 141 kts | 0° |
| 2026-04-25 19:40 | 14.62159 | -17.07235 | 947 ft | 132 kts | 358° |
| 2026-04-25 19:41 | 14.63061 | -17.07245 | 802 ft | 129 kts | 358° |
| 2026-04-25 19:41 | 14.63955 | -17.07256 | 644 ft | 124 kts | 359° |
| 2026-04-25 19:41 | 14.64807 | -17.07260 | 430 ft | 121 kts | 358° |
| 2026-04-25 19:41 | 14.65081 | -17.07263 | 410 ft | 122 kts | 358° |
| 2026-04-25 19:42 | 14.66426 | -17.07283 | 300 ft | 96 kts | 359° |
| 2026-04-25 19:42 | 14.66974 | -17.07285 | 302 ft | 61 kts | 360° |
| 2026-04-25 19:42 | 14.67274 | -17.07286 | 299 ft | 25 kts | 1° |
| 2026-04-25 19:42 | 14.67461 | -17.07283 | 296 ft | 43 kts | 0° |
| 2026-04-25 19:43 | 14.67739 | -17.07222 | 300 ft | 33 kts | 25° |
| 2026-04-25 19:43 | 14.67833 | -17.07172 | 298 ft | 13 kts | 27° |
| 2026-04-25 19:43 | 14.67913 | -17.07131 | 302 ft | 13 kts | 24° |
| 2026-04-25 19:43 | 14.67991 | -17.07105 | 301 ft | 11 kts | 13° |
| 2026-04-25 19:44 | 14.68025 | -17.07088 | 302 ft | 1 kts | 36° |
| 2026-04-25 19:44 | 14.68030 | -17.07083 | 302 ft | 1 kts | 41° |
| 2026-04-25 19:44 | 14.68038 | -17.07039 | 299 ft | 12 kts | 104° |
| 2026-04-25 19:44 | 14.67972 | -17.06998 | 302 ft | 14 kts | 163° |
| 2026-04-25 19:45 | 14.67869 | -17.06983 | 301 ft | 15 kts | 177° |
| 2026-04-25 19:45 | 14.67762 | -17.06980 | 300 ft | 15 kts | 179° |
| 2026-04-25 19:45 | 14.67656 | -17.06982 | 301 ft | 15 kts | 180° |
| 2026-04-25 19:45 | 14.67549 | -17.06982 | 297 ft | 15 kts | 180° |
| 2026-04-25 19:46 | 14.67444 | -17.06981 | 301 ft | 15 kts | 179° |
| 2026-04-25 19:46 | 14.67337 | -17.06980 | 297 ft | 15 kts | 179° |
| 2026-04-25 19:46 | 14.67230 | -17.06980 | 297 ft | 15 kts | 179° |
| 2026-04-25 19:46 | 14.67133 | -17.06979 | 297 ft | 12 kts | 179° |
| 2026-04-25 19:47 | 14.67077 | -17.06966 | 299 ft | 8 kts | 135° |
| 2026-04-25 19:47 | 14.67076 | -17.06909 | 300 ft | 8 kts | 83° |
| 2026-04-25 19:47 | 14.67078 | -17.06859 | 301 ft | 5 kts | 88° |
| 2026-04-25 19:47 | 14.67079 | -17.06854 | 301 ft | 0 kts | 88° |